createdAt,value
2023-02-01T00:00:04.554Z,17.70
2023-02-01T00:02:34.348Z,17.80
2023-02-01T00:05:02.069Z,17.70
2023-02-01T00:07:29.836Z,17.80
2023-02-01T00:09:57.537Z,17.80
2023-02-01T00:12:25.238Z,17.80
2023-02-01T00:14:53.184Z,17.80
2023-02-01T00:17:20.881Z,17.80
2023-02-01T00:19:49.921Z,17.80
2023-02-01T00:22:17.600Z,17.70
2023-02-01T00:24:45.284Z,17.80
2023-02-01T00:27:18.398Z,17.80
2023-02-01T00:29:46.484Z,17.80
2023-02-01T00:32:14.225Z,17.80
2023-02-01T00:34:42.110Z,17.80
2023-02-01T00:37:11.153Z,17.80
2023-02-01T00:39:39.128Z,17.80
2023-02-01T00:42:06.949Z,17.80
2023-02-01T00:44:36.112Z,17.80
2023-02-01T00:47:03.979Z,17.70
2023-02-01T00:49:31.710Z,17.70
2023-02-01T00:51:59.396Z,17.80
2023-02-01T00:54:28.563Z,17.80
2023-02-01T00:56:56.242Z,17.80
2023-02-01T00:59:23.949Z,17.80
2023-02-01T01:01:51.710Z,17.70
2023-02-01T01:04:19.405Z,17.70
2023-02-01T01:06:47.084Z,17.70
2023-02-01T01:09:14.829Z,17.70
2023-02-01T01:11:43.915Z,17.70
2023-02-01T01:14:11.597Z,17.70
2023-02-01T01:16:39.439Z,17.70
2023-02-01T01:19:07.579Z,17.70
2023-02-01T01:21:35.590Z,17.70
2023-02-01T01:24:03.278Z,17.60
2023-02-01T01:26:31.350Z,17.60
2023-02-01T01:29:00.579Z,17.70
2023-02-01T01:31:28.422Z,17.70
2023-02-01T01:33:57.101Z,17.70
2023-02-01T01:36:25.130Z,17.70
2023-02-01T01:38:53.242Z,17.70
2023-02-01T01:41:22.147Z,17.70
2023-02-01T01:43:52.976Z,17.70
2023-02-01T01:46:23.665Z,17.70
2023-02-01T01:48:52.737Z,17.70
2023-02-01T01:51:21.607Z,17.70
2023-02-01T01:53:52.061Z,17.70
2023-02-01T01:56:19.756Z,17.70
2023-02-01T01:58:47.462Z,17.70
2023-02-01T02:01:15.190Z,17.70
2023-02-01T02:03:44.646Z,17.70
2023-02-01T02:06:15.517Z,17.80
2023-02-01T02:08:43.253Z,17.70
2023-02-01T02:11:13.086Z,17.80
2023-02-01T02:13:41.886Z,17.70
2023-02-01T02:16:29.065Z,17.80
2023-02-01T02:19:09.385Z,17.80
2023-02-01T02:21:45.890Z,17.70
2023-02-01T02:24:38.401Z,17.80
2023-02-01T02:27:26.076Z,17.70
2023-02-01T02:30:50.417Z,17.80
2023-02-01T02:33:43.411Z,17.80
2023-02-01T02:36:14.358Z,17.80
2023-02-01T02:38:46.750Z,17.70
2023-02-01T02:41:37.547Z,17.80
2023-02-01T02:44:28.309Z,17.80
2023-02-01T02:47:13.456Z,17.80
2023-02-01T02:49:44.139Z,17.80
2023-02-01T02:52:31.566Z,17.80
2023-02-01T02:54:59.269Z,17.80
2023-02-01T02:57:46.441Z,17.80
2023-02-01T03:00:33.467Z,17.80
2023-02-01T03:03:18.765Z,17.80
2023-02-01T03:05:51.433Z,17.70
2023-02-01T03:08:20.667Z,17.70
2023-02-01T03:10:57.203Z,17.70
2023-02-01T03:13:29.428Z,17.70
2023-02-01T03:16:00.915Z,17.70
2023-02-01T03:18:32.746Z,17.70
2023-02-01T03:21:04.411Z,17.70
2023-02-01T03:23:33.068Z,17.70
2023-02-01T03:26:00.778Z,17.60
2023-02-01T03:28:28.947Z,17.60
2023-02-01T03:30:57.001Z,17.60
2023-02-01T03:33:25.679Z,17.70
2023-02-01T03:35:59.410Z,17.70
2023-02-01T03:38:31.366Z,17.70
2023-02-01T03:41:01.573Z,17.60
2023-02-01T03:43:30.135Z,17.70
2023-02-01T03:46:03.538Z,17.60
2023-02-01T03:48:31.330Z,17.70
2023-02-01T03:51:01.036Z,17.70
2023-02-01T03:53:30.129Z,17.70
2023-02-01T03:55:57.836Z,17.70
2023-02-01T03:58:26.340Z,17.70
2023-02-01T04:00:55.170Z,17.70
2023-02-01T04:03:23.695Z,17.70
2023-02-01T04:05:51.648Z,17.70
2023-02-01T04:08:19.943Z,17.70
2023-02-01T04:10:48.933Z,17.70
2023-02-01T04:13:16.597Z,17.70
2023-02-01T04:15:44.268Z,17.70
2023-02-01T04:18:12.013Z,17.70
2023-02-01T04:20:39.687Z,17.70
2023-02-01T04:23:07.356Z,17.60
2023-02-01T04:25:35.005Z,17.70
2023-02-01T04:28:04.093Z,17.70
2023-02-01T04:30:31.818Z,17.60
2023-02-01T04:32:59.504Z,17.70
2023-02-01T04:35:27.213Z,17.70
2023-02-01T04:37:54.876Z,17.70
2023-02-01T04:40:22.739Z,17.70
2023-02-01T04:42:50.578Z,17.70
2023-02-01T04:45:19.569Z,17.80
2023-02-01T04:47:48.957Z,17.70
2023-02-01T04:50:17.145Z,17.70
2023-02-01T04:52:46.108Z,17.70
2023-02-01T04:55:14.207Z,17.70
2023-02-01T04:57:42.128Z,17.70
2023-02-01T05:00:11.029Z,17.70
2023-02-01T05:02:40.056Z,17.70
2023-02-01T05:05:08.431Z,17.70
2023-02-01T05:07:36.270Z,17.70
2023-02-01T05:10:04.769Z,17.70
2023-02-01T05:12:50.095Z,17.70
2023-02-01T05:15:17.950Z,17.70
2023-02-01T05:17:46.931Z,17.70
2023-02-01T05:20:14.596Z,17.70
2023-02-01T05:22:43.154Z,17.70
2023-02-01T05:25:11.033Z,17.70
2023-02-01T05:27:38.735Z,17.70
2023-02-01T05:30:07.256Z,17.70
2023-02-01T05:32:35.016Z,17.70
2023-02-01T05:35:04.069Z,17.70
2023-02-01T05:37:31.770Z,17.70
2023-02-01T05:39:59.425Z,17.60
2023-02-01T05:42:27.085Z,17.60
2023-02-01T05:44:54.753Z,17.60
2023-02-01T05:47:22.568Z,17.60
2023-02-01T05:49:50.245Z,17.60
2023-02-01T05:52:20.306Z,17.60
2023-02-01T05:54:48.333Z,17.60
2023-02-01T05:57:16.266Z,17.60
2023-02-01T05:59:45.479Z,17.60
2023-02-01T06:02:13.330Z,17.60
2023-02-01T06:04:41.044Z,17.60
2023-02-01T06:07:09.946Z,17.60
2023-02-01T06:09:38.947Z,17.60
2023-02-01T06:12:07.389Z,17.60
2023-02-01T06:14:35.039Z,17.60
2023-02-01T06:17:02.758Z,17.60
2023-02-01T06:19:31.300Z,17.70
2023-02-01T06:21:58.989Z,17.70
2023-02-01T06:24:26.712Z,17.60
2023-02-01T06:26:55.755Z,17.60
2023-02-01T06:29:23.521Z,17.70
2023-02-01T06:31:51.686Z,17.60
2023-02-01T06:34:22.167Z,17.60
2023-02-01T06:36:50.010Z,17.60
2023-02-01T06:39:17.770Z,17.60
2023-02-01T06:41:47.651Z,17.60
2023-02-01T06:44:16.647Z,17.60
2023-02-01T06:46:44.516Z,17.60
2023-02-01T06:49:12.204Z,17.60
2023-02-01T06:51:39.921Z,17.60
2023-02-01T06:54:07.617Z,17.60
2023-02-01T06:56:35.319Z,17.60
2023-02-01T06:59:05.656Z,17.60
2023-02-01T07:01:34.758Z,17.60
2023-02-01T07:04:02.481Z,17.70
2023-02-01T07:06:30.184Z,17.60
2023-02-01T07:08:57.848Z,17.70
2023-02-01T07:11:25.497Z,17.70
2023-02-01T07:13:53.163Z,17.70
2023-02-01T07:16:21.412Z,17.60
2023-02-01T07:18:51.540Z,17.70
2023-02-01T07:21:19.274Z,17.70
2023-02-01T07:23:46.980Z,17.60
2023-02-01T07:26:15.264Z,17.60
2023-02-01T07:28:43.093Z,17.60
2023-02-01T07:31:12.020Z,17.60
2023-02-01T07:33:39.752Z,17.60
2023-02-01T07:36:12.169Z,17.60
2023-02-01T07:38:39.920Z,17.50
2023-02-01T07:41:08.926Z,17.60
2023-02-01T07:43:36.977Z,17.60
2023-02-01T07:46:05.097Z,17.60
2023-02-01T07:48:34.529Z,17.60
2023-02-01T07:51:02.817Z,17.60
2023-02-01T07:53:32.438Z,17.60
2023-02-01T07:56:00.202Z,17.60
2023-02-01T07:58:28.354Z,17.70
2023-02-01T08:01:13.808Z,17.70
2023-02-01T08:03:41.522Z,17.70
2023-02-01T08:06:09.248Z,17.70
2023-02-01T08:08:38.669Z,17.70
2023-02-01T08:11:07.105Z,17.70
2023-02-01T08:13:35.401Z,17.60
2023-02-01T08:16:03.483Z,17.60
2023-02-01T08:18:31.250Z,17.70
2023-02-01T08:20:58.996Z,17.60
2023-02-01T08:23:26.780Z,17.60
2023-02-01T08:25:55.796Z,17.60
2023-02-01T08:28:23.485Z,17.60
2023-02-01T08:30:51.255Z,17.60
2023-02-01T08:33:19.055Z,17.60
2023-02-01T08:35:46.810Z,17.60
2023-02-01T08:38:14.476Z,17.60
2023-02-01T08:40:42.552Z,17.60
2023-02-01T08:43:11.629Z,17.60
2023-02-01T08:45:39.413Z,17.70
2023-02-01T08:48:07.558Z,17.70
2023-02-01T08:50:35.341Z,17.70
2023-02-01T08:53:03.022Z,17.70
2023-02-01T08:55:30.881Z,17.70
2023-02-01T08:57:58.624Z,17.70
2023-02-01T09:00:27.784Z,17.70
2023-02-01T09:02:55.963Z,17.70
2023-02-01T09:05:29.534Z,17.70
2023-02-01T09:08:03.032Z,17.70
2023-02-01T09:10:35.173Z,17.80
2023-02-01T09:13:03.980Z,17.80
2023-02-01T09:15:33.134Z,17.80
2023-02-01T09:18:00.925Z,17.80
2023-02-01T09:20:28.767Z,17.70
2023-02-01T09:22:56.946Z,17.70
2023-02-01T09:25:24.791Z,17.70
2023-02-01T09:27:52.556Z,17.70
2023-02-01T09:30:20.266Z,17.70
2023-02-01T09:32:49.342Z,17.70
2023-02-01T09:35:17.328Z,17.70
2023-02-01T09:37:45.032Z,17.70
2023-02-01T09:40:15.489Z,17.70
2023-02-01T09:42:59.626Z,17.70
2023-02-01T09:45:30.395Z,17.70
2023-02-01T09:48:01.810Z,17.70
2023-02-01T09:50:33.003Z,17.70
2023-02-01T09:53:02.515Z,17.70
2023-02-01T09:55:35.803Z,17.70
2023-02-01T09:58:04.683Z,17.70
2023-02-01T10:00:35.758Z,17.80
2023-02-01T10:03:04.904Z,17.70
2023-02-01T10:05:45.759Z,17.80
2023-02-01T10:08:15.197Z,17.80
2023-02-01T10:10:45.528Z,17.80
2023-02-01T10:13:28.951Z,17.70
2023-02-01T10:16:03.300Z,17.70
2023-02-01T10:18:42.463Z,17.70
2023-02-01T10:21:15.004Z,17.80
2023-02-01T10:23:53.797Z,17.70
2023-02-01T10:26:22.512Z,17.70
2023-02-01T10:28:52.239Z,17.70
2023-02-01T10:31:20.228Z,17.80
2023-02-01T10:33:50.621Z,17.70
2023-02-01T10:36:20.327Z,17.70
2023-02-01T10:38:48.072Z,17.70
2023-02-01T10:41:17.073Z,17.70
2023-02-01T10:43:44.988Z,17.70
2023-02-01T10:46:12.782Z,17.70
2023-02-01T10:48:41.766Z,17.70
2023-02-01T10:51:13.982Z,17.70
2023-02-01T10:53:44.709Z,17.70
2023-02-01T10:56:12.517Z,17.70
2023-02-01T10:58:45.604Z,17.80
2023-02-01T11:01:18.331Z,17.70
2023-02-01T11:03:46.499Z,17.70
2023-02-01T11:06:20.296Z,17.70
2023-02-01T11:08:49.395Z,17.70
2023-02-01T11:11:19.292Z,17.70
2023-02-01T11:13:47.252Z,17.70
2023-02-01T11:16:16.518Z,17.70
2023-02-01T11:18:44.229Z,17.70
2023-02-01T11:21:12.514Z,17.60
2023-02-01T11:23:45.477Z,17.60
2023-02-01T11:26:15.180Z,17.60
2023-02-01T11:28:47.340Z,17.60
2023-02-01T11:31:15.207Z,17.60
2023-02-01T11:33:47.272Z,17.60
2023-02-01T11:36:16.712Z,17.60
2023-02-01T11:38:48.249Z,17.60
2023-02-01T11:41:16.647Z,17.60
2023-02-01T11:43:55.800Z,17.60
2023-02-01T11:46:27.224Z,17.60
2023-02-01T11:48:55.123Z,17.70
2023-02-01T11:51:43.425Z,17.60
2023-02-01T11:54:20.227Z,17.70
2023-02-01T11:56:52.968Z,17.70
2023-02-01T11:59:27.785Z,17.70
2023-02-01T12:02:05.292Z,17.60
2023-02-01T12:05:03.354Z,17.60
2023-02-01T12:07:39.381Z,17.60
2023-02-01T12:10:17.339Z,17.60
2023-02-01T12:12:48.523Z,17.60
2023-02-01T12:15:30.163Z,17.60
2023-02-01T12:18:16.432Z,17.60
2023-02-01T12:20:58.825Z,17.60
2023-02-01T12:23:36.654Z,17.70
2023-02-01T12:26:13.179Z,17.70
2023-02-01T12:29:05.442Z,17.80
2023-02-01T12:31:54.825Z,17.90
2023-02-01T12:34:48.376Z,17.90
2023-02-01T12:37:20.657Z,18.00
2023-02-01T12:39:50.951Z,18.00
2023-02-01T12:42:23.174Z,18.10
2023-02-01T12:44:52.710Z,18.10
2023-02-01T12:47:24.166Z,18.20
2023-02-01T12:49:55.687Z,18.20
2023-02-01T12:52:28.204Z,18.30
2023-02-01T12:54:58.162Z,18.30
2023-02-01T12:57:28.703Z,18.40
2023-02-01T12:59:58.846Z,18.40
2023-02-01T13:02:29.798Z,18.40
2023-02-01T13:05:02.752Z,18.50
2023-02-01T13:07:32.402Z,18.50
2023-02-01T13:10:03.531Z,18.60
2023-02-01T13:12:36.214Z,18.60
2023-02-01T13:15:05.906Z,18.70
2023-02-01T13:17:34.466Z,18.70
2023-02-01T13:20:04.580Z,18.70
2023-02-01T13:22:35.209Z,18.70
2023-02-01T13:25:04.010Z,18.80
2023-02-01T13:27:33.235Z,19.10
2023-02-01T13:30:01.829Z,20.00
2023-02-01T13:33:50.217Z,20.70
2023-02-01T13:36:00.153Z,21.10
2023-02-01T13:38:38.449Z,22.00
2023-02-01T13:41:15.376Z,23.00
2023-02-01T13:43:45.461Z,23.40
2023-02-01T13:46:22.917Z,23.10
2023-02-01T13:48:51.954Z,22.90
2023-02-01T13:51:20.637Z,22.70
2023-02-01T13:53:49.710Z,22.50
2023-02-01T13:56:18.563Z,22.30
2023-02-01T13:58:48.022Z,21.90
2023-02-01T14:01:35.850Z,21.60
2023-02-01T14:04:04.074Z,21.40
2023-02-01T14:06:45.417Z,21.20
2023-02-01T14:09:18.855Z,21.00
2023-02-01T14:11:48.632Z,20.80
2023-02-01T14:14:49.496Z,20.60
2023-02-01T14:17:41.441Z,20.70
2023-02-01T14:20:46.604Z,20.60
2023-02-01T14:23:23.146Z,20.50
2023-02-01T14:26:13.901Z,20.40
2023-02-01T14:29:03.457Z,20.40
2023-02-01T14:31:55.681Z,20.30
2023-02-01T14:34:33.166Z,20.30
2023-02-01T14:37:01.780Z,20.30
2023-02-01T14:39:32.806Z,20.20
2023-02-01T14:42:02.802Z,20.20
2023-02-01T14:44:35.833Z,20.20
2023-02-01T14:47:34.230Z,20.20
2023-02-01T14:50:29.056Z,20.20
2023-02-01T14:53:20.014Z,20.20
2023-02-01T14:55:50.535Z,20.20
2023-02-01T14:58:36.710Z,20.20
2023-02-01T15:01:05.781Z,20.20
2023-02-01T15:03:47.525Z,20.20
2023-02-01T15:06:25.520Z,20.20
2023-02-01T15:08:55.832Z,20.20
2023-02-01T15:11:23.559Z,20.20
2023-02-01T15:13:54.332Z,20.20
2023-02-01T15:16:23.104Z,20.20
2023-02-01T15:18:52.352Z,20.20
2023-02-01T15:21:28.357Z,20.20
2023-02-01T15:24:13.547Z,20.20
2023-02-01T15:26:41.422Z,20.30
2023-02-01T15:29:12.916Z,20.20
2023-02-01T15:31:43.115Z,20.30
2023-02-01T15:34:12.185Z,20.20
2023-02-01T15:36:41.217Z,20.30
2023-02-01T15:39:19.294Z,20.30
2023-02-01T15:41:49.048Z,20.30
2023-02-01T15:44:20.769Z,20.30
2023-02-01T15:46:49.809Z,20.30
2023-02-01T15:49:25.816Z,20.30
2023-02-01T15:51:53.601Z,20.40
2023-02-01T15:54:22.107Z,20.30
2023-02-01T15:56:54.241Z,20.40
2023-02-01T15:59:23.455Z,20.30
2023-02-01T16:01:52.194Z,20.30
2023-02-01T16:04:21.797Z,20.40
2023-02-01T16:06:52.340Z,20.40
2023-02-01T16:09:21.059Z,20.40
2023-02-01T16:11:56.054Z,20.40
2023-02-01T16:14:23.920Z,20.40
2023-02-01T16:16:51.708Z,20.40
2023-02-01T16:19:19.544Z,20.40
2023-02-01T16:21:47.407Z,20.40
2023-02-01T16:24:16.687Z,20.50
2023-02-01T16:26:44.468Z,20.40
2023-02-01T16:29:12.260Z,20.40
2023-02-01T16:31:40.675Z,20.50
2023-02-01T16:34:08.481Z,20.50
2023-02-01T16:36:36.351Z,20.50
2023-02-01T16:39:04.864Z,20.50
2023-02-01T16:41:33.919Z,20.50
2023-02-01T16:44:01.644Z,20.50
2023-02-01T16:46:31.387Z,20.50
2023-02-01T16:49:00.438Z,20.50
2023-02-01T16:51:33.001Z,20.50
2023-02-01T16:54:00.967Z,20.60
2023-02-01T16:56:31.642Z,20.50
2023-02-01T16:59:01.007Z,20.60
2023-02-01T17:01:28.990Z,20.60
2023-02-01T17:03:57.063Z,20.50
2023-02-01T17:06:26.101Z,20.50
2023-02-01T17:08:54.913Z,20.40
2023-02-01T17:11:22.892Z,20.40
2023-02-01T17:13:50.617Z,20.40
2023-02-01T17:16:24.701Z,20.40
2023-02-01T17:18:56.554Z,20.50
2023-02-01T17:21:24.346Z,20.50
2023-02-01T17:23:53.502Z,20.40
2023-02-01T17:26:21.275Z,20.50
2023-02-01T17:28:48.976Z,20.50
2023-02-01T17:31:16.856Z,20.50
2023-02-01T17:33:46.309Z,20.40
2023-02-01T17:36:16.474Z,20.50
2023-02-01T17:38:47.025Z,20.50
2023-02-01T17:41:18.732Z,20.50
2023-02-01T17:43:46.561Z,20.40
2023-02-01T17:46:15.407Z,20.40
2023-02-01T17:48:43.168Z,20.40
2023-02-01T17:51:16.730Z,20.40
2023-02-01T17:53:44.539Z,20.40
2023-02-01T17:56:16.729Z,20.40
2023-02-01T17:58:44.673Z,20.40
2023-02-01T18:01:14.028Z,20.30
2023-02-01T18:03:41.801Z,20.30
2023-02-01T18:06:12.626Z,20.30
2023-02-01T18:08:41.630Z,20.20
2023-02-01T18:11:12.724Z,20.20
2023-02-01T18:13:40.464Z,20.10
2023-02-01T18:16:09.844Z,20.10
2023-02-01T18:18:38.823Z,20.10
2023-02-01T18:21:07.531Z,20.00
2023-02-01T18:23:35.190Z,19.90
2023-02-01T18:33:29.224Z,19.70
2023-02-01T18:35:57.015Z,19.70
2023-02-01T18:38:24.816Z,19.70
2023-02-01T18:40:53.487Z,19.50
2023-02-01T18:43:22.522Z,19.60
2023-02-01T18:45:50.304Z,19.60
2023-02-01T18:48:19.357Z,19.60
2023-02-01T18:50:47.062Z,19.60
2023-02-01T18:53:15.399Z,19.50
2023-02-01T18:55:43.228Z,19.50
2023-02-01T18:58:12.910Z,19.40
2023-02-01T19:00:41.928Z,19.40
2023-02-01T19:03:10.373Z,19.40
2023-02-01T19:05:38.131Z,19.30
2023-02-01T19:08:06.147Z,19.40
2023-02-01T19:10:34.247Z,19.30
2023-02-01T19:13:01.925Z,19.30
2023-02-01T19:15:29.655Z,19.30
2023-02-01T19:17:59.219Z,19.20
2023-02-01T19:20:27.622Z,19.20
2023-02-01T19:22:55.320Z,19.20
2023-02-01T19:25:24.028Z,19.20
2023-02-01T19:27:52.148Z,19.20
2023-02-01T19:30:20.294Z,19.10
2023-02-01T19:32:47.993Z,19.10
2023-02-01T19:35:19.337Z,19.10
2023-02-01T19:37:47.013Z,19.10
2023-02-01T19:40:16.319Z,19.00
2023-02-01T19:42:44.006Z,19.00
2023-02-01T19:45:12.048Z,19.00
2023-02-01T19:47:39.758Z,19.00
2023-02-01T19:50:08.471Z,18.90
2023-02-01T19:52:37.580Z,18.90
2023-02-01T19:55:06.055Z,18.90
2023-02-01T19:57:34.185Z,18.90
2023-02-01T20:00:01.938Z,18.80
2023-02-01T20:02:31.079Z,18.80
2023-02-01T20:04:58.893Z,18.80
2023-02-01T20:07:26.882Z,18.80
2023-02-01T20:09:55.897Z,18.70
2023-02-01T20:12:23.727Z,18.70
2023-02-01T20:14:51.935Z,18.60
2023-02-01T20:17:19.694Z,18.60
2023-02-01T20:19:47.621Z,18.60
2023-02-01T20:22:15.305Z,18.60
2023-02-01T20:24:43.041Z,18.50
2023-02-01T20:27:13.037Z,18.50
2023-02-01T20:29:41.433Z,18.50
2023-02-01T20:32:09.395Z,18.50
2023-02-01T20:34:37.188Z,18.60
2023-02-01T20:37:05.117Z,18.60
2023-02-01T20:39:32.918Z,18.60
2023-02-01T20:42:00.624Z,18.70
2023-02-01T20:44:29.700Z,18.70
2023-02-01T20:46:58.664Z,18.70
2023-02-01T20:49:26.458Z,18.70
2023-02-01T20:51:54.222Z,18.80
2023-02-01T20:54:22.041Z,18.80
2023-02-01T20:56:49.819Z,18.80
2023-02-01T20:59:17.500Z,18.90
2023-02-01T21:01:52.805Z,18.90
2023-02-01T21:04:22.149Z,19.00
2023-02-01T21:06:49.993Z,19.00
2023-02-01T21:09:17.775Z,19.10
2023-02-01T21:11:47.577Z,19.10
2023-02-01T21:14:15.684Z,19.20
2023-02-01T21:16:43.922Z,19.20
2023-02-01T21:19:13.094Z,19.20
2023-02-01T21:21:41.981Z,19.20
2023-02-01T21:24:09.793Z,19.20
2023-02-01T21:26:41.779Z,19.30
2023-02-01T21:29:09.820Z,19.30
2023-02-01T21:31:38.067Z,19.30
2023-02-01T21:34:06.875Z,19.30
2023-02-01T21:36:36.080Z,19.30
2023-02-01T21:39:04.484Z,19.30
2023-02-01T21:41:51.694Z,19.30
2023-02-01T21:44:19.386Z,19.30
2023-02-01T21:46:47.154Z,19.30
2023-02-01T21:49:14.920Z,19.40
2023-02-01T21:51:44.038Z,19.40
2023-02-01T21:54:12.382Z,19.40
2023-02-01T21:56:40.459Z,19.50
2023-02-01T21:59:09.967Z,19.50
2023-02-01T22:01:37.899Z,19.50
2023-02-01T22:04:05.775Z,19.60
2023-02-01T22:06:35.387Z,19.60
2023-02-01T22:09:04.656Z,19.70
2023-02-01T22:11:32.595Z,19.70
2023-02-01T22:14:00.420Z,19.80
2023-02-01T22:16:29.141Z,19.80
2023-02-01T22:18:58.357Z,19.80
2023-02-01T22:21:27.275Z,19.80
2023-02-01T22:23:55.845Z,19.90
2023-02-01T22:26:25.324Z,19.90
2023-02-01T22:28:53.303Z,19.90
2023-02-01T22:31:21.485Z,20.00
2023-02-01T22:33:49.658Z,20.00
2023-02-01T22:36:17.707Z,20.00
2023-02-01T22:38:45.920Z,20.00
2023-02-01T22:41:13.852Z,20.10
2023-02-01T22:43:42.915Z,20.10
2023-02-01T22:46:14.082Z,20.20
2023-02-01T22:48:42.762Z,20.20
2023-02-01T22:51:16.028Z,20.30
2023-02-01T22:53:43.751Z,20.30
2023-02-01T22:56:12.506Z,20.30
2023-02-01T22:58:40.174Z,20.40
2023-02-01T23:01:09.929Z,20.40
2023-02-01T23:03:37.777Z,20.50
2023-02-01T23:06:06.403Z,20.50
2023-02-01T23:08:35.179Z,20.60
2023-02-01T23:11:04.393Z,20.60
2023-02-01T23:13:32.105Z,20.70
2023-02-01T23:16:00.256Z,20.70
2023-02-01T23:18:29.364Z,20.80
2023-02-01T23:20:57.045Z,20.80
2023-02-01T23:23:24.684Z,20.90
2023-02-01T23:25:52.384Z,20.90
2023-02-01T23:28:20.085Z,20.90
2023-02-01T23:30:48.220Z,21.00
2023-02-01T23:33:16.200Z,21.00
2023-02-01T23:35:45.316Z,21.10
2023-02-01T23:38:13.255Z,21.10
2023-02-01T23:40:41.017Z,21.20
2023-02-01T23:43:26.574Z,21.20
2023-02-01T23:45:58.653Z,21.30
2023-02-01T23:48:26.341Z,21.40
2023-02-01T23:50:55.508Z,21.40
2023-02-01T23:53:23.479Z,21.40
2023-02-01T23:55:53.421Z,21.40
2023-02-01T23:58:21.389Z,21.50
